Time;durP1;ratioP1;P1;durP2;ratioP2;P2;SDS_P1;SDS_P2;PMS_P1;PMS_P2;Temp;Humidity;BMP_temperature;BMP_pressure;BME280_temperature;BME280_humidity;BME280_pressure;Samples;Min_cycle;Max_cycle;Signal;HPM_P1;HPM_P2
2021/06/28 00:00:11;;;;;;;6.93;6.22;;;22.50;69.20;;;;;;4932406;29;20190;-80
2021/06/28 00:02:39;;;;;;;6.13;5.53;;;22.40;69.20;;;;;;4916720;29;20182;-80
2021/06/28 00:05:12;;;;;;;6.18;5.57;;;22.40;69.20;;;;;;4915965;29;20189;-80
2021/06/28 00:07:41;;;;;;;6.35;5.75;;;22.50;69.20;;;;;;4916077;29;20236;-80
2021/06/28 00:10:13;;;;;;;6.45;5.85;;;22.40;69.20;;;;;;4932055;29;20205;-80
2021/06/28 00:12:40;;;;;;;6.90;6.20;;;22.50;69.20;;;;;;4916214;29;20228;-80
2021/06/28 00:15:16;;;;;;;6.53;5.82;;;22.50;69.20;;;;;;4931363;29;20186;-80
2021/06/28 00:17:45;;;;;;;7.03;5.85;;;22.50;69.20;;;;;;4915859;29;20596;-80
2021/06/28 00:20:11;;;;;;;6.78;6.18;;;22.50;69.20;;;;;;4900299;29;20545;-80
2021/06/28 00:22:40;;;;;;;6.93;6.28;;;22.40;69.10;;;;;;4952824;29;20169;-79
2021/06/28 00:25:11;;;;;;;6.70;6.00;;;22.40;69.20;;;;;;4921725;29;20193;-80
2021/06/28 00:27:40;;;;;;;6.68;5.97;;;22.50;69.30;;;;;;4921717;29;20272;-80
2021/06/28 00:30:07;;;;;;;6.97;6.28;;;22.50;69.30;;;;;;4921025;29;20253;-80
2021/06/28 00:32:37;;;;;;;6.53;5.72;;;22.40;69.30;;;;;;4953518;29;20190;-80
2021/06/28 00:35:08;;;;;;;7.43;6.10;;;22.40;69.30;;;;;;4937803;29;20189;-79
2021/06/28 00:37:39;;;;;;;6.30;5.70;;;22.40;69.40;;;;;;4937428;29;20189;-80
2021/06/28 00:40:09;;;;;;;7.10;5.88;;;22.40;69.40;;;;;;4937978;29;20185;-79
2021/06/28 00:42:40;;;;;;;6.70;6.00;;;22.40;69.40;;;;;;4922048;29;20190;-79
2021/06/28 00:45:22;;;;;;;6.50;5.90;;;22.40;69.40;;;;;;4921707;29;20265;-80
2021/06/28 00:47:54;;;;;;;6.63;5.93;;;22.40;69.50;;;;;;4907255;29;20193;-80
2021/06/28 00:50:22;;;;;;;6.32;5.72;;;22.40;69.50;;;;;;4906115;29;20190;-80
2021/06/28 00:53:00;;;;;;;6.60;6.00;;;22.30;69.40;;;;;;4906272;29;20213;-79
2021/06/28 00:55:31;;;;;;;6.90;6.30;;;22.30;69.50;;;;;;4937021;29;20182;-79
2021/06/28 00:58:02;;;;;;;6.50;5.90;;;22.40;69.60;;;;;;4906639;29;20186;-79
2021/06/28 01:00:30;;;;;;;6.70;6.10;;;22.40;69.60;;;;;;4922168;29;20214;-80
2021/06/28 01:02:57;;;;;;;6.47;5.82;;;22.40;69.60;;;;;;4921610;29;20553;-80
2021/06/28 01:05:31;;;;;;;6.68;5.97;;;22.40;69.60;;;;;;4921631;29;20185;-79
2021/06/28 01:08:04;;;;;;;6.20;5.60;;;22.40;69.60;;;;;;4907238;29;20191;-80
2021/06/28 01:10:31;;;;;;;6.20;5.60;;;22.40;69.60;;;;;;4921970;29;20256;-80
2021/06/28 01:13:01;;;;;;;6.32;5.72;;;22.30;69.60;;;;;;4920563;29;20231;-80
2021/06/28 01:15:33;;;;;;;6.15;5.55;;;22.30;69.60;;;;;;4937313;29;20221;-80
2021/06/28 01:18:00;;;;;;;6.30;5.70;;;22.30;69.70;;;;;;4921635;29;20216;-80
2021/06/28 01:20:27;;;;;;;6.03;5.50;;;22.40;69.80;;;;;;4921234;29;20186;-80
2021/06/28 01:22:55;;;;;;;6.80;6.10;;;22.30;69.70;;;;;;4954608;29;20334;-80
2021/06/28 01:25:24;;;;;;;6.47;5.88;;;22.30;69.70;;;;;;4953469;29;20159;-80
2021/06/28 01:27:52;;;;;;;6.40;5.80;;;22.40;69.80;;;;;;4955130;29;20190;-79
2021/06/28 01:30:22;;;;;;;6.30;5.70;;;22.30;69.70;;;;;;4953324;29;20228;-79
2021/06/28 01:32:50;;;;;;;6.60;6.00;;;22.40;69.70;;;;;;4953622;29;20182;-79
2021/06/28 01:35:16;;;;;;;5.82;5.32;;;22.30;69.70;;;;;;4950403;29;20218;-79
2021/06/28 01:37:42;;;;;;;6.05;5.45;;;22.30;69.70;;;;;;4950608;29;20170;-79
2021/06/28 01:40:09;;;;;;;6.85;6.15;;;22.30;69.80;;;;;;4950657;29;20162;-80
2021/06/28 01:42:37;;;;;;;6.60;5.90;;;22.30;69.80;;;;;;4952702;29;20158;-79
2021/06/28 01:45:06;;;;;;;6.60;6.00;;;22.30;69.70;;;;;;4952896;29;20190;-79
2021/06/28 01:47:33;;;;;;;6.43;5.82;;;22.30;69.70;;;;;;4951009;29;20221;-80
2021/06/28 01:50:03;;;;;;;6.40;5.80;;;22.30;69.70;;;;;;4951758;29;20190;-79
2021/06/28 01:52:31;;;;;;;6.88;5.85;;;22.30;69.80;;;;;;4934151;29;20213;-79
2021/06/28 01:54:59;;;;;;;6.25;5.65;;;22.30;69.80;;;;;;4934351;29;20241;-79
2021/06/28 01:57:27;;;;;;;6.38;5.78;;;22.30;69.80;;;;;;4902312;29;20189;-79
2021/06/28 01:59:57;;;;;;;6.15;5.55;;;22.30;69.80;;;;;;4934260;29;20733;-79
2021/06/28 02:02:27;;;;;;;6.47;5.88;;;22.20;69.80;;;;;;4918094;29;20198;-79
2021/06/28 02:04:54;;;;;;;6.88;6.18;;;22.30;69.80;;;;;;4918183;29;20244;-79
2021/06/28 02:07:24;;;;;;;6.22;5.63;;;22.30;69.80;;;;;;4918459;29;20189;-79
2021/06/28 02:09:51;;;;;;;5.88;5.38;;;22.30;69.80;;;;;;4918309;29;20182;-80
2021/06/28 02:12:18;;;;;;;6.35;5.75;;;22.30;69.80;;;;;;4917538;29;20209;-79
2021/06/28 02:14:45;;;;;;;6.35;5.75;;;22.30;69.80;;;;;;4933958;29;20182;-79
2021/06/28 02:17:11;;;;;;;6.30;5.65;;;22.30;69.90;;;;;;4917997;29;20222;-79
2021/06/28 02:19:36;;;;;;;6.25;5.65;;;22.20;69.80;;;;;;4950299;29;20162;-79
2021/06/28 02:22:03;;;;;;;6.22;5.63;;;22.30;70.00;;;;;;4949638;29;20162;-79
2021/06/28 02:24:31;;;;;;;6.60;5.97;;;22.30;70.00;;;;;;4950129;29;20186;-79
2021/06/28 02:26:57;;;;;;;6.65;5.95;;;22.30;69.80;;;;;;4949831;29;20221;-79
2021/06/28 02:29:22;;;;;;;6.30;5.70;;;22.30;69.90;;;;;;4950168;29;20225;-79
2021/06/28 02:31:53;;;;;;;6.07;5.47;;;22.30;69.90;;;;;;4949390;29;20252;-79
2021/06/28 02:34:23;;;;;;;6.47;5.80;;;22.30;69.90;;;;;;4918064;29;20182;-80
2021/06/28 02:36:52;;;;;;;6.13;5.53;;;22.30;69.80;;;;;;4917426;29;20245;-79
2021/06/28 02:39:23;;;;;;;6.28;5.68;;;22.20;69.90;;;;;;4933611;29;20166;-80
2021/06/28 02:41:51;;;;;;;6.20;5.60;;;22.30;70.00;;;;;;4901015;29;20185;-79
2021/06/28 02:44:16;;;;;;;6.18;5.57;;;22.20;69.90;;;;;;4916028;29;20193;-80
2021/06/28 02:46:43;;;;;;;6.55;5.88;;;22.20;70.00;;;;;;4933603;29;20630;-79
2021/06/28 02:49:13;;;;;;;6.38;5.78;;;22.30;70.10;;;;;;4917381;29;20201;-80
2021/06/28 02:51:40;;;;;;;6.20;5.60;;;22.20;70.00;;;;;;4916567;29;20213;-80
2021/06/28 02:54:07;;;;;;;6.15;5.55;;;22.20;70.00;;;;;;4932030;29;20182;-79
2021/06/28 02:56:34;;;;;;;6.80;6.10;;;22.20;69.90;;;;;;4917274;29;20186;-79
2021/06/28 02:59:11;;;;;;;6.20;5.57;;;22.20;69.80;;;;;;4932198;29;20228;-80
2021/06/28 03:01:38;;;;;;;6.90;6.07;;;22.30;69.80;;;;;;4917689;29;20182;-80
2021/06/28 03:04:07;;;;;;;6.20;5.60;;;22.30;69.80;;;;;;4949756;29;20630;-79
2021/06/28 03:06:34;;;;;;;6.85;6.15;;;22.30;70.60;;;;;;4917004;29;20197;-79
2021/06/28 03:09:04;;;;;;;6.30;5.70;;;22.30;69.80;;;;;;4949479;29;20201;-79
2021/06/28 03:11:30;;;;;;;6.90;6.20;;;22.30;69.90;;;;;;4916844;29;20243;-80
2021/06/28 03:14:01;;;;;;;6.57;5.97;;;22.30;69.90;;;;;;4949039;29;20188;-80
2021/06/28 03:16:27;;;;;;;7.03;6.18;;;22.20;69.90;;;;;;4900692;29;20182;-80
2021/06/28 03:18:57;;;;;;;6.47;5.78;;;22.20;69.90;;;;;;4949168;29;20158;-80
2021/06/28 03:21:24;;;;;;;6.90;6.20;;;22.30;69.80;;;;;;4901074;29;20201;-80
2021/06/28 03:23:55;;;;;;;6.45;5.85;;;22.30;69.80;;;;;;4932566;29;20174;-79
2021/06/28 03:26:27;;;;;;;6.18;5.53;;;22.20;69.70;;;;;;4932143;29;20189;-80
2021/06/28 03:28:55;;;;;;;6.85;6.15;;;22.30;69.70;;;;;;4915648;29;20222;-80
2021/06/28 03:31:21;;;;;;;6.63;6.03;;;22.30;69.60;;;;;;4932553;29;20234;-79
2021/06/28 03:33:49;;;;;;;6.47;5.72;;;22.30;69.60;;;;;;4948659;29;20181;-79
2021/06/28 03:36:16;;;;;;;6.43;5.82;;;22.20;69.60;;;;;;4915960;29;20676;-79
2021/06/28 03:38:44;;;;;;;6.95;6.25;;;22.30;69.50;;;;;;4948834;29;20182;-79
2021/06/28 03:41:15;;;;;;;6.30;5.70;;;22.30;69.50;;;;;;4915842;29;20182;-80
2021/06/28 03:43:44;;;;;;;6.43;5.82;;;22.30;69.40;;;;;;4916089;29;20593;-80
2021/06/28 03:46:12;;;;;;;6.60;6.00;;;22.30;69.30;;;;;;4931891;29;20186;-80
2021/06/28 03:48:38;;;;;;;6.20;5.60;;;22.40;69.30;;;;;;4932013;29;20202;-80
2021/06/28 03:51:06;;;;;;;6.38;5.78;;;22.40;69.30;;;;;;4948932;29;20685;-80
2021/06/28 03:53:34;;;;;;;6.32;5.70;;;22.40;69.30;;;;;;4931858;29;20177;-79
2021/06/28 03:56:06;;;;;;;6.50;5.90;;;22.40;69.20;;;;;;4915464;29;20190;-79
2021/06/28 03:58:36;;;;;;;6.43;5.80;;;22.40;69.10;;;;;;4933220;29;20272;-80
2021/06/28 04:01:09;;;;;;;6.35;5.75;;;22.40;69.00;;;;;;4916152;29;20189;-80
2021/06/28 04:03:38;;;;;;;6.60;6.00;;;22.40;68.80;;;;;;4931795;29;20193;-79
2021/06/28 04:06:05;;;;;;;6.47;5.88;;;22.40;68.90;;;;;;4900391;29;20186;-80
2021/06/28 04:08:36;;;;;;;6.45;5.85;;;22.40;68.90;;;;;;4932173;29;20229;-80
2021/06/28 04:11:02;;;;;;;6.78;6.18;;;22.50;69.00;;;;;;4916027;29;20209;-80
2021/06/28 04:13:28;;;;;;;6.50;5.90;;;22.40;69.10;;;;;;4948119;29;20193;-79
2021/06/28 04:15:58;;;;;;;6.28;5.68;;;22.40;69.00;;;;;;4948410;29;20158;-79
2021/06/28 04:18:28;;;;;;;6.65;5.90;;;22.50;68.80;;;;;;4947973;29;20275;-80
2021/06/28 04:20:59;;;;;;;7.07;6.07;;;22.50;68.50;;;;;;4931079;29;20194;-80
2021/06/28 04:23:26;;;;;;;6.40;5.80;;;22.60;69.20;;;;;;4931879;29;20246;-80
2021/06/28 04:25:52;;;;;;;6.45;5.85;;;22.60;68.10;;;;;;4915782;29;20182;-80
2021/06/28 04:28:22;;;;;;;6.50;5.75;;;22.60;68.30;;;;;;4916001;29;20189;-80
2021/06/28 04:30:50;;;;;;;7.10;6.40;;;22.60;68.30;;;;;;4947786;29;20226;-80
2021/06/28 04:33:15;;;;;;;6.18;5.57;;;22.60;68.00;;;;;;4915522;29;20210;-80
2021/06/28 04:35:44;;;;;;;6.07;5.47;;;22.60;68.00;;;;;;4949179;29;20163;-80
2021/06/28 04:38:11;;;;;;;6.80;6.03;;;22.60;67.80;;;;;;4948074;29;20194;-80
2021/06/28 04:40:38;;;;;;;6.50;5.88;;;22.70;67.60;;;;;;4947804;29;20159;-80
2021/06/28 04:43:08;;;;;;;6.38;5.78;;;22.80;67.40;;;;;;4914925;29;20234;-80
2021/06/28 04:45:37;;;;;;;7.05;6.32;;;22.70;67.40;;;;;;4915517;29;20193;-80
2021/06/28 04:48:05;;;;;;;6.55;5.90;;;22.80;67.40;;;;;;4914766;29;20186;-80
2021/06/28 04:50:31;;;;;;;6.35;5.75;;;22.80;67.10;;;;;;4947383;29;20158;-80
2021/06/28 04:53:01;;;;;;;6.60;5.95;;;22.90;67.20;;;;;;4947828;29;20202;-80
2021/06/28 04:55:27;;;;;;;6.18;5.57;;;22.80;67.10;;;;;;4915934;29;20190;-80
2021/06/28 04:57:55;;;;;;;6.38;5.78;;;22.80;67.30;;;;;;4931747;29;20177;-80
2021/06/28 05:00:27;;;;;;;6.78;6.07;;;22.90;67.00;;;;;;4947856;29;20154;-80
2021/06/28 05:02:53;;;;;;;6.30;5.70;;;22.80;66.90;;;;;;4947232;29;20410;-80
2021/06/28 05:05:25;;;;;;;6.00;5.45;;;22.80;67.20;;;;;;4947690;29;20165;-80
2021/06/28 05:07:53;;;;;;;6.60;5.70;;;22.80;67.30;;;;;;4916353;29;20190;-80
2021/06/28 05:10:19;;;;;;;6.50;5.90;;;22.80;66.90;;;;;;4951641;29;20637;-80
2021/06/28 05:12:46;;;;;;;6.07;5.47;;;22.80;66.70;;;;;;4952144;29;20197;-80
2021/06/28 05:15:19;;;;;;;6.82;6.13;;;22.90;66.60;;;;;;4951842;29;20163;-79
2021/06/28 05:17:49;;;;;;;6.38;5.78;;;22.90;66.50;;;;;;4934895;29;20190;-80
2021/06/28 05:20:15;;;;;;;6.00;5.40;;;22.90;66.70;;;;;;4933887;29;20209;-80
2021/06/28 05:22:45;;;;;;;6.20;5.60;;;22.90;66.80;;;;;;4950387;29;20162;-80
2021/06/28 05:25:16;;;;;;;7.03;6.28;;;22.90;66.60;;;;;;4902180;29;20186;-80
2021/06/28 05:27:42;;;;;;;6.85;6.15;;;22.90;66.60;;;;;;4934078;29;20206;-80
2021/06/28 05:30:10;;;;;;;6.18;5.43;;;22.90;66.70;;;;;;4950218;29;20229;-81
2021/06/28 05:32:36;;;;;;;6.60;5.93;;;22.80;66.80;;;;;;4935314;29;20736;-80
2021/06/28 05:35:06;;;;;;;6.20;5.60;;;22.80;66.80;;;;;;4951532;29;20162;-80
2021/06/28 05:37:35;;;;;;;7.13;6.25;;;22.90;66.70;;;;;;4950252;29;20182;-79
2021/06/28 05:40:01;;;;;;;6.50;5.90;;;22.90;67.60;;;;;;4934358;29;20181;-79
2021/06/28 05:42:27;;;;;;;6.13;5.53;;;22.80;66.80;;;;;;4934866;29;20158;-80
2021/06/28 05:44:52;;;;;;;6.88;6.20;;;22.80;66.70;;;;;;4933984;29;20302;-80
2021/06/28 05:47:22;;;;;;;6.07;5.47;;;22.80;66.90;;;;;;4935112;29;20185;-80
2021/06/28 05:49:54;;;;;;;5.90;5.28;;;22.80;66.90;;;;;;4919273;29;20206;-80
2021/06/28 05:52:21;;;;;;;6.30;5.70;;;22.80;66.90;;;;;;4902296;29;20221;-79
2021/06/28 05:54:48;;;;;;;6.50;5.85;;;22.90;66.70;;;;;;4950473;29;20162;-79
2021/06/28 05:57:19;;;;;;;6.30;5.70;;;22.90;66.60;;;;;;4950387;29;20163;-79
2021/06/28 05:59:46;;;;;;;6.07;5.47;;;22.90;67.20;;;;;;4917962;29;20178;-79
2021/06/28 06:02:12;;;;;;;6.55;5.78;;;23.00;66.30;;;;;;4918804;29;20618;-80
2021/06/28 06:04:42;;;;;;;8.23;5.82;;;23.00;66.10;;;;;;4950413;29;20159;-79
2021/06/28 06:07:09;;;;;;;7.40;6.00;;;22.90;66.10;;;;;;4951419;29;20157;-79
2021/06/28 06:09:35;;;;;;;7.00;5.95;;;22.90;66.30;;;;;;4934061;29;20158;-79
2021/06/28 06:12:00;;;;;;;6.13;5.53;;;22.90;66.50;;;;;;4911161;29;20194;-80
2021/06/28 06:14:26;;;;;;;6.22;5.57;;;22.80;66.60;;;;;;4938105;29;20521;-79
2021/06/28 06:16:52;;;;;;;6.53;5.60;;;22.80;66.50;;;;;;4936987;29;20166;-80
2021/06/28 06:19:17;;;;;;;6.32;5.72;;;22.90;66.40;;;;;;4937251;29;20202;-80
2021/06/28 06:21:43;;;;;;;6.43;5.68;;;23.00;66.30;;;;;;4936893;29;20194;-80
2021/06/28 06:24:09;;;;;;;6.40;5.80;;;22.90;66.50;;;;;;4938082;29;20154;-80
2021/06/28 06:26:35;;;;;;;6.28;5.68;;;22.90;66.50;;;;;;4936819;29;20545;-78
2021/06/28 06:29:01;;;;;;;6.65;5.90;;;22.90;66.40;;;;;;4936706;29;20158;-80
2021/06/28 06:31:27;;;;;;;6.80;6.10;;;22.80;66.70;;;;;;4920711;29;20265;-80
2021/06/28 06:33:52;;;;;;;6.43;5.78;;;22.80;66.70;;;;;;4937816;29;20636;-79
2021/06/28 06:36:18;;;;;;;6.35;5.22;;;22.90;66.50;;;;;;4937877;29;20166;-81
2021/06/28 06:38:44;;;;;;;6.35;5.55;;;22.90;66.20;;;;;;4937986;29;20558;-81
2021/06/28 06:41:10;;;;;;;6.05;5.45;;;22.90;66.50;;;;;;4939163;29;20158;-80
2021/06/28 06:43:36;;;;;;;6.30;5.68;;;22.90;66.80;;;;;;4905731;29;20217;-82
2021/06/28 06:46:02;;;;;;;6.32;5.72;;;22.80;66.90;;;;;;4939485;29;20158;-81
2021/06/28 06:48:28;;;;;;;7.07;5.78;;;22.80;66.70;;;;;;4921071;29;20649;-83
2021/06/28 06:50:54;;;;;;;6.30;5.70;;;22.90;66.50;;;;;;4923919;29;20209;-84
2021/06/28 06:53:20;;;;;;;7.20;6.07;;;22.90;66.70;;;;;;4938983;29;20221;-80
2021/06/28 06:55:46;;;;;;;6.53;5.90;;;22.80;66.80;;;;;;4937366;29;20212;-78
2021/06/28 06:58:12;;;;;;;7.00;5.93;;;22.80;66.90;;;;;;4936336;29;20245;-82
2021/06/28 07:00:40;;;;;;;6.75;5.88;;;22.90;66.70;;;;;;4935193;29;20261;-79
2021/06/28 07:03:07;;;;;;;7.38;5.82;;;22.90;66.50;;;;;;4919770;29;20186;-78
2021/06/28 07:05:34;;;;;;;6.70;6.00;;;23.00;66.50;;;;;;4919726;29;20174;-78
2021/06/28 07:08:00;;;;;;;6.20;5.60;;;22.90;66.70;;;;;;4937235;29;20166;-77
2021/06/28 07:10:26;;;;;;;7.90;6.07;;;22.90;66.50;;;;;;4936880;29;20529;-78
2021/06/28 07:12:53;;;;;;;6.50;5.55;;;23.00;66.20;;;;;;4936966;29;20642;-78
2021/06/28 07:15:19;;;;;;;6.40;5.75;;;23.00;66.20;;;;;;4935733;29;20170;-78
2021/06/28 07:17:45;;;;;;;5.90;5.30;;;23.00;66.00;;;;;;4935865;29;20161;-78
2021/06/28 07:20:13;;;;;;;7.82;6.00;;;23.00;66.00;;;;;;4935666;29;20154;-78
2021/06/28 07:22:39;;;;;;;6.25;5.65;;;23.00;66.30;;;;;;4936263;29;20214;-76
2021/06/28 07:25:06;;;;;;;6.72;6.03;;;22.90;66.30;;;;;;4936766;29;20280;-77
2021/06/28 07:27:32;;;;;;;6.53;5.82;;;22.90;66.10;;;;;;4940281;29;20159;-80
2021/06/28 07:29:58;;;;;;;7.10;6.40;;;22.90;67.00;;;;;;4938352;29;20343;-77
2021/06/28 07:32:24;;;;;;;6.45;5.75;;;22.90;66.20;;;;;;4937605;29;20688;-79
2021/06/28 07:34:49;;;;;;;6.75;6.15;;;22.90;66.90;;;;;;4941564;29;20166;-79
2021/06/28 07:37:15;;;;;;;6.45;5.75;;;22.90;66.10;;;;;;4937233;29;20160;-79
2021/06/28 07:39:41;;;;;;;7.35;6.05;;;22.90;66.30;;;;;;4936448;29;20158;-80
2021/06/28 07:42:07;;;;;;;6.53;5.80;;;23.00;66.00;;;;;;4935755;29;20176;-80
2021/06/28 07:44:32;;;;;;;6.53;5.82;;;23.00;66.10;;;;;;4936542;29;20166;-80
2021/06/28 07:46:58;;;;;;;6.93;6.20;;;23.00;66.00;;;;;;4936698;29;20618;-79
2021/06/28 07:49:24;;;;;;;6.25;5.53;;;23.00;66.00;;;;;;4935434;29;20658;-79
2021/06/28 07:51:49;;;;;;;6.97;6.28;;;23.00;66.00;;;;;;4934997;29;20190;-80
2021/06/28 07:54:17;;;;;;;7.72;5.88;;;23.00;66.00;;;;;;4935012;29;20208;-80
2021/06/28 07:56:43;;;;;;;7.13;6.40;;;23.00;66.00;;;;;;4936167;29;20157;-79
2021/06/28 07:59:09;;;;;;;7.00;6.30;;;23.00;66.00;;;;;;4936214;29;20170;-78
2021/06/28 08:01:34;;;;;;;6.45;5.82;;;22.90;66.10;;;;;;4936393;29;20162;-79
2021/06/28 08:04:00;;;;;;;6.40;5.65;;;23.00;66.00;;;;;;4936200;29;20618;-79
2021/06/28 08:06:26;;;;;;;6.32;5.72;;;22.90;66.10;;;;;;4935977;29;20174;-79
2021/06/28 08:08:52;;;;;;;7.20;6.18;;;22.90;66.40;;;;;;4936245;29;20162;-78
2021/06/28 08:11:19;;;;;;;6.85;6.13;;;23.00;66.30;;;;;;4936256;29;20529;-78
2021/06/28 08:13:46;;;;;;;7.13;6.40;;;23.00;66.10;;;;;;4936824;29;20164;-80
2021/06/28 08:16:13;;;;;;;9.88;6.57;;;23.00;65.90;;;;;;4936024;29;20162;-80
2021/06/28 08:18:41;;;;;;;9.13;6.32;;;23.10;65.80;;;;;;4935274;29;20162;-80
2021/06/28 08:21:07;;;;;;;6.53;5.93;;;23.10;65.60;;;;;;4936351;29;20193;-80
2021/06/28 08:23:33;;;;;;;6.88;6.03;;;23.10;65.50;;;;;;4936212;29;20204;-81
2021/06/28 08:25:58;;;;;;;6.70;5.85;;;23.10;65.80;;;;;;4936155;29;20181;-81
2021/06/28 08:28:24;;;;;;;6.75;6.07;;;23.10;65.90;;;;;;4935046;29;20249;-81
2021/06/28 08:30:51;;;;;;;6.45;5.78;;;23.10;65.90;;;;;;4935369;29;20217;-79
2021/06/28 08:33:16;;;;;;;6.85;6.00;;;23.10;66.10;;;;;;4936274;29;20253;-79
2021/06/28 08:35:43;;;;;;;8.35;6.22;;;23.00;66.10;;;;;;4936511;29;20158;-79
2021/06/28 08:38:10;;;;;;;6.72;6.03;;;23.10;65.90;;;;;;4937497;29;20167;-77
2021/06/28 08:40:36;;;;;;;7.10;5.90;;;23.20;65.70;;;;;;4955380;29;20276;-79
2021/06/28 08:43:04;;;;;;;6.25;5.65;;;23.20;65.70;;;;;;4957645;28;20185;-78
2021/06/28 08:45:34;;;;;;;6.22;5.63;;;23.10;65.60;;;;;;4979201;28;20170;-78
2021/06/28 08:48:03;;;;;;;6.95;6.07;;;23.10;65.70;;;;;;4948132;29;20226;-80
2021/06/28 08:50:29;;;;;;;7.00;6.30;;;23.10;65.90;;;;;;4945569;29;20218;-80
2021/06/28 08:52:55;;;;;;;6.55;5.68;;;23.10;65.90;;;;;;4946725;29;20186;-79
2021/06/28 08:55:26;;;;;;;7.00;6.30;;;23.10;65.90;;;;;;4929271;29;20181;-80
2021/06/28 08:57:58;;;;;;;8.02;6.32;;;23.10;65.90;;;;;;4928687;29;20196;-80
2021/06/28 09:00:24;;;;;;;8.35;5.65;;;23.10;65.90;;;;;;4928181;29;20190;-79
2021/06/28 09:02:54;;;;;;;7.07;6.38;;;23.10;65.80;;;;;;4947138;29;20159;-79
2021/06/28 09:05:20;;;;;;;7.68;6.22;;;23.10;65.90;;;;;;4929754;29;20182;-79
2021/06/28 09:07:46;;;;;;;6.90;6.07;;;23.10;65.90;;;;;;4945216;29;20162;-79
2021/06/28 09:10:32;;;;;;;6.75;6.05;;;23.10;66.00;;;;;;4946039;29;20210;-79
2021/06/28 09:12:58;;;;;;;8.25;6.28;;;23.10;66.00;;;;;;4945155;29;20265;-79
2021/06/28 09:15:36;;;;;;;7.63;6.00;;;23.10;65.90;;;;;;4930374;29;20198;-80
2021/06/28 09:18:17;;;;;;;7.15;5.60;;;23.10;66.10;;;;;;4945334;29;20154;-78
2021/06/28 09:20:47;;;;;;;6.80;6.10;;;23.10;66.10;;;;;;4944019;29;20170;-79
2021/06/28 09:23:25;;;;;;;7.65;6.47;;;23.10;66.10;;;;;;4912652;29;20186;-79
2021/06/28 09:25:54;;;;;;;8.95;6.28;;;23.20;66.00;;;;;;4912246;29;20190;-79
2021/06/28 09:28:38;;;;;;;6.78;6.00;;;23.20;65.80;;;;;;4945300;29;20189;-79
2021/06/28 09:31:31;;;;;;;7.07;6.10;;;23.20;65.70;;;;;;4946061;29;20234;-80
2021/06/28 09:34:16;;;;;;;7.57;6.60;;;23.10;65.90;;;;;;4930761;29;20229;-80
2021/06/28 09:36:53;;;;;;;8.15;6.53;;;23.10;66.10;;;;;;4944599;29;20206;-80
2021/06/28 09:39:28;;;;;;;7.53;6.70;;;23.10;66.10;;;;;;4944475;29;20188;-80
2021/06/28 09:42:08;;;;;;;7.15;6.35;;;23.10;66.00;;;;;;4943715;29;20540;-80
2021/06/28 09:44:38;;;;;;;7.68;6.03;;;23.00;66.00;;;;;;4943148;29;20174;-80
2021/06/28 09:47:12;;;;;;;7.00;6.30;;;23.10;65.90;;;;;;4940814;29;20181;-79
2021/06/28 09:49:39;;;;;;;7.20;6.50;;;23.20;65.80;;;;;;4942084;29;20162;-78
2021/06/28 09:52:05;;;;;;;6.80;6.10;;;23.20;65.80;;;;;;4940311;29;20317;-79
2021/06/28 09:54:34;;;;;;;7.65;6.32;;;23.10;66.00;;;;;;4921052;29;20201;-79
2021/06/28 09:56:59;;;;;;;6.88;5.88;;;23.10;65.90;;;;;;4922091;29;20155;-80
2021/06/28 09:59:42;;;;;;;6.45;5.85;;;23.10;65.60;;;;;;4921315;29;20177;-78
2021/06/28 10:02:20;;;;;;;8.35;6.88;;;23.30;65.90;;;;;;4938816;29;20166;-82
2021/06/28 10:04:59;;;;;;;7.20;6.50;;;23.20;65.80;;;;;;4938354;29;20652;-79
2021/06/28 10:07:36;;;;;;;6.95;6.25;;;23.30;65.80;;;;;;4938971;29;20169;-83
2021/06/28 10:10:16;;;;;;;9.80;6.53;;;23.20;65.50;;;;;;4936377;29;20171;-83
2021/06/28 10:12:45;;;;;;;7.93;6.68;;;23.20;65.60;;;;;;4936618;29;20189;-82
2021/06/28 10:15:14;;;;;;;7.05;6.15;;;23.30;65.60;;;;;;4936229;29;20254;-80
2021/06/28 10:17:40;;;;;;;6.70;5.95;;;23.10;65.70;;;;;;4937419;29;20151;-88
2021/06/28 10:20:08;;;;;;;7.10;6.30;;;23.20;66.70;;;;;;4938224;29;20230;-82
2021/06/28 10:22:35;;;;;;;7.35;5.95;;;23.30;66.00;;;;;;4937281;29;20170;-83
2021/06/28 10:25:02;;;;;;;6.80;6.10;;;23.30;65.60;;;;;;4921840;29;20689;-85
2021/06/28 10:27:30;;;;;;;7.30;6.60;;;23.30;65.40;;;;;;4937471;29;20166;-84
2021/06/28 10:30:00;;;;;;;7.68;6.50;;;23.30;65.40;;;;;;4938999;29;20658;-86
2021/06/28 10:32:41;;;;;;;7.18;6.28;;;23.30;65.30;;;;;;4909551;29;20260;-82
2021/06/28 10:35:10;;;;;;;7.32;5.97;;;23.30;65.30;;;;;;4936597;29;20261;-81
2021/06/28 10:37:44;;;;;;;6.95;5.90;;;23.30;65.50;;;;;;4937162;29;20598;-82
2021/06/28 10:40:12;;;;;;;9.00;6.50;;;23.20;65.40;;;;;;4920635;29;20546;-82
2021/06/28 10:42:44;;;;;;;7.13;5.95;;;23.30;65.40;;;;;;4920405;29;20681;-83
2021/06/28 10:45:11;;;;;;;7.63;6.30;;;23.20;65.70;;;;;;4937360;29;20640;-81
2021/06/28 10:47:38;;;;;;;7.50;6.68;;;23.30;65.30;;;;;;4937253;29;20166;-82
2021/06/28 10:50:05;;;;;;;6.90;6.10;;;23.30;65.40;;;;;;4937128;29;20665;-82
2021/06/28 10:52:46;;;;;;;7.20;6.18;;;23.20;65.50;;;;;;4937068;29;20678;-81
2021/06/28 10:55:35;;;;;;;7.57;6.78;;;23.20;65.70;;;;;;4936092;29;20159;-81
2021/06/28 10:58:02;;;;;;;7.47;6.68;;;23.30;65.30;;;;;;4935884;29;20241;-81
2021/06/28 11:00:48;;;;;;;7.95;6.60;;;23.30;65.00;;;;;;4937172;29;20169;-81
2021/06/28 11:03:32;;;;;;;7.30;6.57;;;23.30;65.00;;;;;;4920814;29;20188;-81
2021/06/28 11:06:16;;;;;;;7.20;6.50;;;23.30;65.20;;;;;;4920095;29;20324;-82
2021/06/28 11:09:03;;;;;;;8.93;7.03;;;23.30;65.30;;;;;;4920237;29;20220;-81
2021/06/28 11:11:51;;;;;;;7.68;6.78;;;23.30;65.30;;;;;;4936927;29;20241;-81
2021/06/28 11:14:41;;;;;;;7.10;6.22;;;23.30;65.30;;;;;;4935665;29;20241;-82
2021/06/28 11:17:09;;;;;;;8.63;6.55;;;23.40;65.40;;;;;;4935914;29;20253;-81
2021/06/28 11:19:49;;;;;;;7.75;6.93;;;23.30;65.40;;;;;;4920572;29;20300;-81
2021/06/28 11:22:33;;;;;;;7.07;6.38;;;23.30;65.20;;;;;;4900334;29;20186;-81
2021/06/28 11:25:13;;;;;;;7.80;6.70;;;23.20;65.30;;;;;;4899899;29;20167;-81
2021/06/28 11:27:44;;;;;;;7.97;6.93;;;23.30;65.30;;;;;;4899923;29;20298;-81
2021/06/28 11:30:20;;;;;;;7.38;6.40;;;23.30;65.10;;;;;;4915706;29;20229;-81
2021/06/28 11:33:00;;;;;;;7.03;6.18;;;23.30;65.10;;;;;;4898993;29;20214;-81
2021/06/28 11:35:34;;;;;;;7.03;6.20;;;23.40;64.70;;;;;;4913691;29;20163;-81
2021/06/28 11:38:37;;;;;;;8.13;6.32;;;23.40;64.40;;;;;;4914351;29;20201;-82
2021/06/28 11:41:15;;;;;;;7.13;6.25;;;23.50;64.60;;;;;;4898634;29;20158;-81
2021/06/28 11:43:46;;;;;;;6.97;6.28;;;23.40;64.80;;;;;;4898606;29;20183;-81
2021/06/28 11:46:15;;;;;;;7.35;6.40;;;23.40;64.70;;;;;;4914230;29;20678;-80
2021/06/28 11:48:53;;;;;;;9.63;6.55;;;23.40;64.70;;;;;;4914580;29;20279;-81
2021/06/28 11:51:22;;;;;;;8.25;6.63;;;23.40;64.80;;;;;;4899787;29;20643;-81
2021/06/28 11:54:02;;;;;;;7.63;6.78;;;23.40;64.70;;;;;;4930893;29;20190;-81
2021/06/28 11:56:32;;;;;;;8.20;6.82;;;23.40;64.50;;;;;;4919446;29;20169;-81
2021/06/28 11:59:01;;;;;;;7.53;6.45;;;23.40;64.60;;;;;;4934979;29;20158;-81
2021/06/28 12:01:30;;;;;;;8.85;6.65;;;23.40;64.70;;;;;;4935372;29;20155;-82
2021/06/28 12:03:57;;;;;;;7.07;6.38;;;23.40;64.80;;;;;;4935939;29;20150;-81
2021/06/28 12:06:27;;;;;;;7.53;6.60;;;23.50;64.40;;;;;;4935223;29;20154;-82
2021/06/28 12:09:10;;;;;;;7.60;6.72;;;23.60;64.20;;;;;;4935148;29;20154;-82
2021/06/28 12:11:46;;;;;;;8.38;6.70;;;23.60;64.30;;;;;;4935015;29;20150;-82
2021/06/28 12:14:12;;;;;;;8.63;6.80;;;23.60;64.30;;;;;;4934860;29;20172;-81
2021/06/28 12:16:42;;;;;;;7.75;6.63;;;23.60;64.20;;;;;;4935084;29;20253;-81
2021/06/28 12:19:09;;;;;;;8.23;6.68;;;23.50;64.50;;;;;;4918681;29;20170;-82
2021/06/28 12:21:38;;;;;;;8.80;6.57;;;23.40;64.80;;;;;;4935992;29;20159;-81
2021/06/28 12:24:07;;;;;;;7.53;6.35;;;23.40;64.70;;;;;;4936150;29;20178;-82
2021/06/28 12:26:33;;;;;;;8.00;6.70;;;23.40;65.60;;;;;;4919115;29;20533;-82
2021/06/28 12:29:18;;;;;;;7.88;7.05;;;23.50;64.90;;;;;;4934573;29;20218;-82
2021/06/28 12:31:44;;;;;;;7.55;6.63;;;23.50;64.90;;;;;;4935997;29;20194;-82
2021/06/28 12:34:10;;;;;;;7.93;6.88;;;23.40;64.50;;;;;;4918718;29;20174;-81
2021/06/28 12:36:36;;;;;;;7.22;6.07;;;23.50;64.40;;;;;;4934566;29;20610;-81
2021/06/28 12:39:06;;;;;;;7.65;6.55;;;23.60;64.40;;;;;;4935398;29;20162;-83
2021/06/28 12:41:31;;;;;;;7.47;6.63;;;23.50;64.30;;;;;;4887930;29;20209;-83
2021/06/28 12:43:57;;;;;;;8.93;6.75;;;23.60;64.20;;;;;;4936669;29;20166;-82
2021/06/28 12:46:30;;;;;;;8.10;6.72;;;23.60;64.00;;;;;;4922222;29;20170;-83
2021/06/28 12:48:56;;;;;;;8.15;6.70;;;23.60;64.00;;;;;;4891224;29;20182;-82
2021/06/28 12:51:26;;;;;;;9.02;7.10;;;23.50;64.10;;;;;;4937349;29;20155;-84
2021/06/28 12:53:52;;;;;;;8.15;6.65;;;23.50;64.40;;;;;;4890658;29;20605;-83
2021/06/28 12:56:18;;;;;;;8.45;6.90;;;23.40;64.70;;;;;;4922399;29;20234;-83
2021/06/28 12:58:51;;;;;;;7.47;6.65;;;23.50;64.80;;;;;;4937815;29;20630;-83